createdAt,value
2023-10-30T00:03:12.597Z,1.70
2023-10-30T00:08:14.196Z,1.90
2023-10-30T00:13:15.691Z,1.80
2023-10-30T00:18:17.330Z,0.80
2023-10-30T00:23:18.886Z,1.43
2023-10-30T00:28:20.377Z,1.47
2023-10-30T00:33:21.923Z,1.90
2023-10-30T00:38:23.503Z,1.00
2023-10-30T00:43:24.967Z,3.53
2023-10-30T00:48:26.617Z,2.27
2023-10-30T00:58:30.206Z,1.08
2023-10-30T01:03:31.958Z,0.57
2023-10-30T01:08:33.821Z,0.80
2023-10-30T01:13:37.338Z,0.70
2023-10-30T01:18:39.019Z,0.70
2023-10-30T01:23:40.873Z,0.90
2023-10-30T01:28:42.639Z,2.67
2023-10-30T01:33:44.298Z,2.00
2023-10-30T01:38:45.834Z,1.20
2023-10-30T01:43:47.299Z,1.20
2023-10-30T01:48:49.867Z,1.10
2023-10-30T01:53:52.305Z,1.30
2023-10-30T02:03:56.733Z,2.17
2023-10-30T02:08:58.504Z,0.80
2023-10-30T02:14:00.037Z,3.70
2023-10-30T02:19:01.592Z,3.20
2023-10-30T02:24:07.855Z,2.00
2023-10-30T02:29:10.688Z,1.27
2023-10-30T02:34:14.011Z,2.78
2023-10-30T02:39:15.589Z,0.90
2023-10-30T02:44:17.115Z,0.73
2023-10-30T02:49:18.647Z,2.00
2023-10-30T02:54:20.236Z,1.00
2023-10-30T02:59:21.788Z,0.90
2023-10-30T03:04:24.702Z,5.20
2023-10-30T03:09:31.346Z,2.97
2023-10-30T03:14:32.949Z,3.00
2023-10-30T03:19:34.481Z,1.17
2023-10-30T03:24:36.058Z,8.47
2023-10-30T03:29:37.918Z,4.17
2023-10-30T03:34:40.482Z,1.55
2023-10-30T03:39:42.027Z,8.33
2023-10-30T03:44:43.540Z,2.23
2023-10-30T03:49:45.053Z,1.17
2023-10-30T03:54:46.791Z,2.50
2023-10-30T03:59:48.580Z,1.73
2023-10-30T04:04:50.244Z,1.27
2023-10-30T04:09:52.494Z,3.27
2023-10-30T04:14:54.015Z,6.72
2023-10-30T04:19:55.562Z,4.27
2023-10-30T04:24:57.193Z,3.50
2023-10-30T04:29:58.848Z,2.10
2023-10-30T04:35:00.342Z,4.40
2023-10-30T04:40:01.847Z,2.78
2023-10-30T04:45:03.745Z,1.63
2023-10-30T04:50:05.709Z,2.13
2023-10-30T04:55:07.678Z,1.58
2023-10-30T05:00:09.797Z,2.88
2023-10-30T05:05:11.322Z,2.30
2023-10-30T05:10:13.273Z,2.60
2023-10-30T05:15:14.799Z,2.45
2023-10-30T05:20:16.528Z,2.60
2023-10-30T05:25:21.158Z,3.93
2023-10-30T05:30:24.969Z,1.95
2023-10-30T05:35:26.476Z,2.10
2023-10-30T05:40:28.041Z,0.98
2023-10-30T05:45:29.706Z,2.03
2023-10-30T05:50:31.279Z,4.20
2023-10-30T05:55:32.825Z,2.72
2023-10-30T06:00:34.411Z,2.03
2023-10-30T06:05:36.321Z,4.73
2023-10-30T06:10:40.892Z,1.73
2023-10-30T06:15:42.593Z,2.83
2023-10-30T06:20:45.822Z,6.90
2023-10-30T06:25:47.339Z,2.70
2023-10-30T06:30:48.868Z,1.27
2023-10-30T06:35:56.934Z,3.33
2023-10-30T06:40:58.452Z,1.42
2023-10-30T06:46:03.841Z,0.93
2023-10-30T06:51:05.908Z,2.17
2023-10-30T06:56:07.974Z,1.20
2023-10-30T07:01:09.634Z,2.05
2023-10-30T07:06:12.197Z,3.33
2023-10-30T07:11:13.717Z,2.35
2023-10-30T07:16:15.375Z,5.05
2023-10-30T07:21:16.919Z,1.27
2023-10-30T07:26:19.574Z,2.37
2023-10-30T07:31:21.229Z,6.03
2023-10-30T07:36:22.796Z,1.70
2023-10-30T07:41:24.491Z,2.90
2023-10-30T07:46:26.351Z,1.07
2023-10-30T07:51:28.062Z,1.73
2023-10-30T07:56:29.790Z,1.40
2023-10-30T08:01:31.392Z,2.88
2023-10-30T08:06:34.326Z,1.40
2023-10-30T08:11:36.488Z,1.87
2023-10-30T08:16:38.212Z,3.85
2023-10-30T08:21:39.888Z,8.52
2023-10-30T08:26:41.607Z,3.13
2023-10-30T08:31:43.451Z,3.85
2023-10-30T08:36:45.389Z,1.58
2023-10-30T08:41:47.015Z,2.15
2023-10-30T08:46:48.566Z,1.23
2023-10-30T08:52:00.678Z,1.23
2023-10-30T08:57:16.584Z,1.67
2023-10-30T09:02:19.046Z,2.53
2023-10-30T09:07:21.280Z,1.90
2023-10-30T09:17:24.798Z,1.93
2023-10-30T09:22:27.006Z,2.67
2023-10-30T09:27:28.686Z,2.90
2023-10-30T09:32:30.294Z,3.60
2023-10-30T09:37:31.811Z,1.93
2023-10-30T09:42:35.664Z,3.13
2023-10-30T09:47:37.387Z,2.58
2023-10-30T09:52:39.028Z,1.90
2023-10-30T09:57:41.878Z,4.93
2023-10-30T10:02:44.571Z,1.25
2023-10-30T10:07:47.057Z,1.75
2023-10-30T10:17:57.409Z,3.67
2023-10-30T10:22:58.973Z,2.88
2023-10-30T10:28:01.269Z,3.20
2023-10-30T10:33:03.248Z,3.20
2023-10-30T10:38:14.314Z,4.60
2023-10-30T10:43:21.005Z,6.95
2023-10-30T10:48:24.752Z,2.92
2023-10-30T10:53:28.957Z,4.50
2023-10-30T10:58:41.269Z,2.10
2023-10-30T11:09:11.262Z,0.90
2023-10-30T11:14:21.510Z,1.42
2023-10-30T11:19:23.605Z,0.93
2023-10-30T11:24:45.120Z,0.98
2023-10-30T11:30:12.752Z,0.70
2023-10-30T11:35:14.827Z,1.50
2023-10-30T11:45:19.877Z,1.60
2023-10-30T11:50:26.252Z,1.00
2023-10-30T11:55:30.383Z,1.27
2023-10-30T12:00:32.382Z,2.22
2023-10-30T12:05:33.990Z,0.80
2023-10-30T12:10:36.855Z,1.02
2023-10-30T12:15:39.104Z,0.80
2023-10-30T12:25:42.307Z,1.45
2023-10-30T12:30:44.440Z,0.70
2023-10-30T12:35:56.793Z,1.08
2023-10-30T12:40:58.583Z,1.17
2023-10-30T12:46:00.124Z,0.75
2023-10-30T12:51:02.151Z,1.13
2023-10-30T13:06:10.136Z,4.00
2023-10-30T13:11:12.400Z,1.17
2023-10-30T13:16:14.009Z,2.20
2023-10-30T13:21:16.345Z,3.38
2023-10-30T13:26:18.944Z,1.45
2023-10-30T13:31:20.437Z,2.58
2023-10-30T13:36:22.368Z,2.78
2023-10-30T13:41:24.108Z,3.45
2023-10-30T13:46:25.769Z,1.42
2023-10-30T13:51:27.306Z,3.08
2023-10-30T13:56:28.912Z,2.65
2023-10-30T14:01:30.550Z,3.38
2023-10-30T14:06:32.150Z,2.75
2023-10-30T14:11:33.694Z,5.53
2023-10-30T14:16:36.114Z,7.68
2023-10-30T14:21:37.837Z,2.22
2023-10-30T14:26:39.883Z,5.57
2023-10-30T14:31:41.509Z,2.53
2023-10-30T14:36:43.169Z,2.42
2023-10-30T14:41:44.735Z,7.90
2023-10-30T14:46:46.294Z,4.43
2023-10-30T14:51:48.444Z,2.35
2023-10-30T15:01:55.189Z,3.65
2023-10-30T15:06:56.812Z,4.88
2023-10-30T15:11:58.385Z,9.55
2023-10-30T15:16:59.990Z,4.87
2023-10-30T15:22:01.607Z,6.78
2023-10-30T15:27:04.637Z,5.15
2023-10-30T15:32:06.491Z,6.80
2023-10-30T15:37:08.122Z,6.72
2023-10-30T15:42:09.804Z,5.43
2023-10-30T15:47:24.150Z,5.17
2023-10-30T15:57:33.615Z,5.57
2023-10-30T16:02:35.552Z,6.43
2023-10-30T16:07:38.007Z,6.28
2023-10-30T16:12:39.608Z,7.22
2023-10-30T16:17:41.234Z,6.13
2023-10-30T16:22:43.006Z,5.88
2023-10-30T16:27:45.445Z,7.80
2023-10-30T16:32:47.034Z,5.10
2023-10-30T16:37:51.453Z,6.73
2023-10-30T16:42:52.984Z,6.78
2023-10-30T16:47:54.805Z,3.87
2023-10-30T16:52:56.389Z,3.95
2023-10-30T16:57:58.210Z,4.50
2023-10-30T17:03:01.048Z,2.55
2023-10-30T17:08:03.797Z,4.63
2023-10-30T17:13:08.839Z,4.33
2023-10-30T17:18:10.419Z,11.18
2023-10-30T17:23:11.967Z,9.80
2023-10-30T17:28:13.869Z,3.97
2023-10-30T17:33:15.404Z,4.10
2023-10-30T17:38:17.074Z,3.73
2023-10-30T17:43:18.628Z,5.22
2023-10-30T17:48:20.176Z,5.30
2023-10-30T17:53:21.718Z,5.23
2023-10-30T17:58:23.331Z,5.73
2023-10-30T18:03:24.989Z,18.93
2023-10-30T18:08:26.536Z,4.63
2023-10-30T18:13:28.046Z,4.87
2023-10-30T18:18:29.706Z,6.30
2023-10-30T18:23:32.825Z,5.55
2023-10-30T18:28:34.369Z,6.03
2023-10-30T18:33:35.916Z,6.73
2023-10-30T18:38:37.491Z,8.53
2023-10-30T18:43:39.022Z,5.53
2023-10-30T18:48:41.619Z,5.87
2023-10-30T18:53:43.972Z,5.78
2023-10-30T18:58:45.594Z,8.55
2023-10-30T19:03:48.177Z,7.67
2023-10-30T19:08:51.421Z,7.57
2023-10-30T19:13:54.452Z,5.50
2023-10-30T19:18:56.620Z,4.70
2023-10-30T19:23:58.097Z,5.25
2023-10-30T19:28:59.696Z,5.67
2023-10-30T19:34:01.271Z,5.80
2023-10-30T19:39:03.061Z,5.67
2023-10-30T19:44:04.921Z,5.53
2023-10-30T19:49:06.659Z,5.75
2023-10-30T19:54:08.215Z,5.95
2023-10-30T19:59:09.671Z,6.00
2023-10-30T20:04:11.259Z,5.00
2023-10-30T20:09:14.199Z,4.87
2023-10-30T20:14:15.762Z,5.53
2023-10-30T20:19:17.279Z,6.37
2023-10-30T20:24:18.848Z,4.63
2023-10-30T20:29:21.440Z,7.97
2023-10-30T20:34:22.960Z,9.07
2023-10-30T20:39:26.074Z,6.77
2023-10-30T20:44:27.639Z,7.25
2023-10-30T20:49:29.219Z,9.23
2023-10-30T20:54:30.818Z,5.87
2023-10-30T20:59:32.434Z,9.63
2023-10-30T21:04:34.059Z,4.60
2023-10-30T21:09:37.210Z,3.87
2023-10-30T21:14:38.745Z,6.03
2023-10-30T21:19:40.572Z,7.23
2023-10-30T21:24:42.324Z,6.07
2023-10-30T21:29:43.977Z,5.35
2023-10-30T21:34:45.519Z,5.63
2023-10-30T21:39:47.083Z,4.17
2023-10-30T21:44:49.106Z,6.70
2023-10-30T21:49:50.907Z,5.75
2023-10-30T21:54:52.784Z,6.43
2023-10-30T21:59:54.371Z,5.57
2023-10-30T22:04:56.644Z,8.30
2023-10-30T22:15:00.845Z,5.78
2023-10-30T22:20:02.454Z,5.70
2023-10-30T22:25:04.489Z,9.17
2023-10-30T22:30:09.702Z,8.00
2023-10-30T22:35:11.480Z,5.57
2023-10-30T22:40:13.543Z,5.88
2023-10-30T22:45:15.170Z,7.38
2023-10-30T22:50:16.884Z,6.03
2023-10-30T22:55:18.514Z,6.90
2023-10-30T23:00:23.872Z,6.37
2023-10-30T23:05:25.422Z,5.35
2023-10-30T23:10:27.744Z,5.70
2023-10-30T23:20:30.868Z,6.22
2023-10-30T23:25:32.535Z,11.30
2023-10-30T23:30:34.083Z,8.33
2023-10-30T23:35:35.648Z,8.53
2023-10-30T23:40:37.457Z,5.57
2023-10-30T23:45:39.007Z,6.87
2023-10-30T23:50:40.528Z,8.50
2023-10-30T23:55:42.269Z,9.27
